Ewtrford, Pennsylvania
Current Conditions -  °F | °C
As of 5:53 PM on Thursday 20 Nov 2014 (Local Time) from KAOO Reporting Station
Clear Clear  
Wind Chill: -10°   Ceiling: Unl
Heat Index: -3°   Visibility: 10mi
Dew Point: -11°   Wind: 14mph
Humidity: 55%   Direction: 280°W
Pressure: 29.97"   Gusts: 22mph
Location:  40.3617°N, 77.6745°W
Report Text: KAOO 202253Z AUTO 28012G19KT 10SM CLR M03/M11 A2997 RMK AO2 SLP164 T10331111
Loading
Personal Weather Stations






























Interactive Weather Map New forecast layout! Learn more

10-Day Weather Forecast

Advertisements
Track Severe Weather on mobile